createdAt,value
2019-02-19T00:00:33.620Z,85.43
2019-02-19T00:03:37.902Z,87.40
2019-02-19T00:06:42.278Z,87.90
2019-02-19T00:09:46.618Z,91.80
2019-02-19T00:12:50.928Z,91.00
2019-02-19T00:15:55.295Z,93.70
2019-02-19T00:18:59.585Z,91.83
2019-02-19T00:22:04.073Z,92.53
2019-02-19T00:25:08.387Z,93.40
2019-02-19T00:28:12.757Z,93.50
2019-02-19T00:31:17.137Z,91.73
2019-02-19T00:34:21.420Z,93.50
2019-02-19T00:37:25.734Z,89.07
2019-02-19T00:40:30.070Z,87.77
2019-02-19T00:43:34.457Z,87.17
2019-02-19T00:46:38.849Z,84.10
2019-02-19T00:49:43.245Z,86.20
2019-02-19T00:52:47.541Z,88.50
2019-02-19T00:55:51.936Z,93.47
2019-02-19T00:58:58.549Z,89.37
2019-02-19T01:02:03.015Z,94.97
2019-02-19T01:05:07.508Z,94.63
2019-02-19T01:08:12.138Z,93.67
2019-02-19T01:11:16.501Z,96.63
2019-02-19T01:14:20.877Z,99.77
2019-02-19T01:17:25.191Z,92.37
2019-02-19T01:20:30.421Z,88.60
2019-02-19T01:23:34.805Z,86.33
2019-02-19T01:26:39.216Z,82.03
2019-02-19T01:29:43.583Z,78.83
2019-02-19T01:32:47.968Z,76.87
2019-02-19T01:35:52.264Z,76.17
2019-02-19T01:38:56.540Z,75.00
2019-02-19T01:42:00.894Z,74.77
2019-02-19T01:45:05.651Z,75.30
2019-02-19T01:48:09.928Z,75.80
2019-02-19T01:51:14.224Z,74.10
2019-02-19T01:54:18.518Z,75.90
2019-02-19T01:57:22.892Z,77.50
2019-02-19T02:00:27.181Z,76.07
2019-02-19T02:03:31.495Z,76.47
2019-02-19T02:06:35.699Z,74.00
2019-02-19T02:09:40.094Z,75.40
2019-02-19T02:12:44.407Z,73.00
2019-02-19T02:15:48.725Z,73.07
2019-02-19T02:18:52.994Z,70.07
2019-02-19T02:21:57.360Z,69.27
2019-02-19T02:25:01.702Z,69.23
2019-02-19T02:28:05.991Z,68.37
2019-02-19T02:31:10.287Z,68.07
2019-02-19T02:34:14.593Z,66.03
2019-02-19T02:37:18.896Z,68.67
2019-02-19T02:40:23.297Z,65.93
2019-02-19T02:43:27.680Z,66.60
2019-02-19T02:46:32.068Z,63.00
2019-02-19T02:49:36.347Z,63.30
2019-02-19T02:52:40.760Z,62.93
2019-02-19T02:55:45.111Z,64.83
2019-02-19T02:58:49.426Z,64.33
2019-02-19T03:01:53.708Z,62.37
2019-02-19T03:04:58.012Z,61.20
2019-02-19T03:08:06.091Z,62.50
2019-02-19T03:11:10.483Z,60.73
2019-02-19T03:14:14.889Z,62.50
2019-02-19T03:17:19.316Z,63.23
2019-02-19T03:20:23.591Z,64.47
2019-02-19T03:23:27.893Z,65.00
2019-02-19T03:26:32.251Z,66.77
2019-02-19T03:29:36.570Z,66.27
2019-02-19T03:32:40.941Z,67.00
2019-02-19T03:35:45.311Z,69.47
2019-02-19T03:38:49.661Z,71.70
2019-02-19T03:41:53.975Z,70.47
2019-02-19T03:44:58.328Z,69.10
2019-02-19T03:48:02.620Z,72.50
2019-02-19T03:51:06.900Z,72.37
2019-02-19T03:54:11.195Z,70.67
2019-02-19T03:57:15.481Z,68.03
2019-02-19T04:00:19.713Z,67.17
2019-02-19T04:03:24.102Z,66.13
2019-02-19T04:06:28.481Z,64.00
2019-02-19T04:09:32.789Z,65.93
2019-02-19T04:12:37.171Z,62.80
2019-02-19T04:15:41.643Z,66.47
2019-02-19T04:18:45.946Z,65.53
2019-02-19T04:21:50.292Z,66.03
2019-02-19T04:24:54.597Z,66.23
2019-02-19T04:27:58.905Z,65.27
2019-02-19T04:31:03.475Z,66.63
2019-02-19T04:34:07.746Z,64.03
2019-02-19T04:37:12.123Z,64.40
2019-02-19T04:40:16.404Z,65.40
2019-02-19T04:43:20.800Z,63.67
2019-02-19T04:46:31.463Z,62.57
2019-02-19T04:49:31.157Z,62.03
2019-02-19T04:52:35.563Z,60.90
2019-02-19T04:55:39.875Z,60.17
2019-02-19T04:58:44.153Z,59.43
2019-02-19T05:01:48.542Z,62.67
2019-02-19T05:04:52.902Z,59.60
2019-02-19T05:07:57.255Z,59.37
2019-02-19T05:11:01.608Z,57.53
2019-02-19T05:14:06.016Z,59.60
2019-02-19T05:17:10.442Z,59.70
2019-02-19T05:20:14.826Z,60.97
2019-02-19T05:23:19.153Z,57.27
2019-02-19T05:26:23.527Z,57.57
2019-02-19T05:29:27.800Z,59.37
2019-02-19T05:32:32.032Z,59.37
2019-02-19T05:35:36.312Z,59.80
2019-02-19T05:38:40.682Z,58.17
2019-02-19T05:41:45.050Z,57.83
2019-02-19T05:44:49.515Z,57.47
2019-02-19T05:47:53.857Z,60.07
2019-02-19T05:50:58.096Z,59.93
2019-02-19T05:54:02.376Z,58.80
2019-02-19T05:57:06.765Z,58.83
2019-02-19T06:00:12.061Z,58.33
2019-02-19T06:03:17.157Z,55.67
2019-02-19T06:06:21.515Z,55.10
2019-02-19T06:09:25.903Z,57.30
2019-02-19T06:12:30.241Z,59.23
2019-02-19T06:15:34.563Z,58.43
2019-02-19T06:18:38.848Z,59.50
2019-02-19T06:21:43.231Z,59.80
2019-02-19T06:24:47.933Z,59.83
2019-02-19T06:27:52.302Z,59.27
2019-02-19T06:30:56.662Z,62.17
2019-02-19T06:34:01.215Z,63.97
2019-02-19T06:37:05.547Z,68.87
2019-02-19T06:40:19.347Z,67.60
2019-02-19T06:43:23.648Z,66.97
2019-02-19T06:46:27.992Z,67.63
2019-02-19T06:49:32.264Z,71.33
2019-02-19T06:52:36.577Z,69.73
2019-02-19T06:55:40.848Z,73.60
2019-02-19T06:58:45.160Z,72.43
2019-02-19T07:02:03.993Z,70.57
2019-02-19T07:05:12.399Z,71.47
2019-02-19T07:08:16.692Z,70.03
2019-02-19T07:11:21.031Z,74.40
2019-02-19T07:14:25.320Z,71.77
2019-02-19T07:17:29.716Z,72.83
2019-02-19T07:20:34.135Z,73.43
2019-02-19T07:23:38.504Z,73.10
2019-02-19T07:26:42.776Z,72.60
2019-02-19T07:29:47.128Z,72.73
2019-02-19T07:32:51.481Z,72.87
2019-02-19T07:35:55.916Z,70.50
2019-02-19T07:39:00.184Z,70.67
2019-02-19T07:42:04.491Z,67.73
2019-02-19T07:45:09.276Z,72.30
2019-02-19T07:48:13.586Z,68.10
2019-02-19T07:51:17.885Z,67.57
2019-02-19T07:54:22.253Z,65.83
2019-02-19T07:57:26.526Z,67.70
2019-02-19T08:00:30.914Z,66.60
2019-02-19T08:03:35.268Z,65.90
2019-02-19T08:06:39.658Z,64.57
2019-02-19T08:09:43.930Z,62.23
2019-02-19T08:12:48.658Z,67.17
2019-02-19T08:15:53.003Z,66.83
2019-02-19T08:18:57.384Z,63.00
2019-02-19T08:22:01.662Z,61.47
2019-02-19T08:25:06.205Z,61.67
2019-02-19T08:28:10.473Z,62.47
2019-02-19T08:31:14.785Z,60.97
2019-02-19T08:34:19.136Z,56.70
2019-02-19T08:37:23.974Z,54.57
2019-02-19T08:40:28.321Z,53.80
2019-02-19T08:43:32.631Z,54.63
2019-02-19T08:46:36.895Z,54.13
2019-02-19T08:49:41.224Z,53.83
2019-02-19T08:52:45.567Z,53.57
2019-02-19T08:55:50.400Z,52.33
2019-02-19T08:58:54.755Z,53.37
2019-02-19T09:01:59.155Z,54.03
2019-02-19T09:05:03.502Z,54.57
2019-02-19T09:08:07.890Z,52.63
2019-02-19T09:11:12.172Z,51.87
2019-02-19T09:14:16.545Z,52.10
2019-02-19T09:17:20.852Z,53.70
2019-02-19T09:20:25.244Z,53.87
2019-02-19T09:23:29.532Z,54.60
2019-02-19T09:26:33.904Z,54.77
2019-02-19T09:29:38.171Z,54.40
2019-02-19T09:32:42.485Z,58.30
2019-02-19T09:35:46.755Z,59.27
2019-02-19T09:38:51.131Z,58.33
2019-02-19T09:41:55.485Z,58.20
2019-02-19T09:44:59.900Z,59.77
2019-02-19T09:48:04.270Z,56.30
2019-02-19T09:51:08.660Z,57.73
2019-02-19T09:54:12.941Z,56.37
2019-02-19T09:57:17.240Z,57.40
2019-02-19T10:00:21.519Z,55.47
2019-02-19T10:03:25.840Z,55.37
2019-02-19T10:06:30.180Z,54.83
2019-02-19T10:09:34.603Z,54.83
2019-02-19T10:12:38.956Z,55.93
2019-02-19T10:15:43.263Z,54.80
2019-02-19T10:18:47.631Z,55.17
2019-02-19T10:21:51.952Z,54.93
2019-02-19T10:24:56.309Z,49.87
2019-02-19T10:28:00.609Z,54.97
2019-02-19T10:31:04.877Z,49.37
2019-02-19T10:34:09.282Z,47.73
2019-02-19T10:37:13.648Z,49.57
2019-02-19T10:40:18.097Z,45.50
2019-02-19T10:43:23.533Z,45.37
2019-02-19T10:46:28.023Z,40.77
2019-02-19T10:49:32.360Z,41.93
2019-02-19T10:52:36.736Z,40.43
2019-02-19T10:55:41.015Z,39.17
2019-02-19T10:58:45.391Z,36.63
2019-02-19T11:01:49.689Z,34.70
2019-02-19T11:04:54.068Z,35.20
2019-02-19T11:07:58.433Z,36.07
2019-02-19T11:11:03.056Z,34.27
2019-02-19T11:14:07.265Z,33.30
2019-02-19T11:17:11.576Z,31.93
2019-02-19T11:20:15.888Z,32.70
2019-02-19T11:23:20.196Z,31.50
2019-02-19T11:26:24.482Z,31.47
2019-02-19T11:29:28.877Z,32.67
2019-02-19T11:32:33.222Z,32.30
2019-02-19T11:35:37.540Z,29.83
2019-02-19T11:38:41.832Z,26.87
2019-02-19T11:41:46.588Z,26.33
2019-02-19T11:44:50.948Z,26.07
2019-02-19T11:47:55.340Z,23.67
2019-02-19T11:50:59.674Z,22.10
2019-02-19T11:54:04.079Z,22.27
2019-02-19T11:57:08.389Z,23.40
2019-02-19T12:00:16.339Z,23.33
2019-02-19T12:03:20.617Z,23.70
2019-02-19T12:06:24.919Z,24.50
2019-02-19T12:09:29.198Z,24.73
2019-02-19T12:12:33.576Z,24.57
2019-02-19T12:15:37.854Z,26.17
2019-02-19T12:18:46.117Z,25.03
2019-02-19T12:21:48.143Z,25.67
2019-02-19T12:24:52.462Z,25.10
2019-02-19T12:27:56.740Z,24.83
2019-02-19T12:31:01.048Z,25.30
2019-02-19T12:34:05.333Z,24.80
2019-02-19T12:37:09.711Z,25.57
2019-02-19T12:40:14.165Z,24.13
2019-02-19T12:43:19.283Z,25.33
2019-02-19T12:46:23.631Z,23.03
2019-02-19T12:49:27.944Z,24.37
2019-02-19T12:52:32.348Z,22.43
2019-02-19T12:55:36.817Z,21.60
2019-02-19T12:58:41.101Z,21.80
2019-02-19T13:01:45.501Z,20.40
2019-02-19T13:04:49.883Z,19.93
2019-02-19T13:07:54.263Z,19.67
2019-02-19T13:10:58.674Z,19.10
2019-02-19T13:14:03.055Z,17.87
2019-02-19T13:17:07.424Z,17.57
2019-02-19T13:20:13.260Z,17.70
2019-02-19T13:23:17.531Z,16.73
2019-02-19T13:26:21.851Z,16.43
2019-02-19T13:29:26.133Z,17.67
2019-02-19T13:32:30.525Z,17.17
2019-02-19T13:35:34.882Z,16.87
2019-02-19T13:38:39.642Z,16.33
2019-02-19T13:41:44.041Z,17.33
2019-02-19T13:44:48.441Z,16.27
2019-02-19T13:47:52.731Z,17.23
2019-02-19T13:50:57.048Z,18.00
2019-02-19T13:54:26.471Z,18.23
2019-02-19T13:57:31.074Z,17.47
2019-02-19T14:00:38.207Z,17.40
2019-02-19T14:03:42.615Z,18.83
2019-02-19T14:06:46.955Z,18.70
2019-02-19T14:09:51.339Z,18.70
2019-02-19T14:12:55.625Z,18.93
2019-02-19T14:16:09.260Z,17.93
2019-02-19T14:19:21.323Z,18.10
2019-02-19T14:22:57.232Z,18.73
2019-02-19T14:26:19.376Z,18.80
2019-02-19T14:29:41.383Z,19.80
2019-02-19T14:33:11.944Z,18.50
2019-02-19T14:36:41.091Z,19.33
2019-02-19T14:40:10.549Z,17.70
2019-02-19T14:43:36.565Z,18.27
2019-02-19T14:46:59.837Z,18.20
2019-02-19T14:50:22.452Z,19.93
2019-02-19T14:53:51.598Z,18.07
2019-02-19T14:57:20.977Z,18.50
2019-02-19T15:00:47.010Z,17.53
2019-02-19T15:04:25.837Z,18.87
2019-02-19T15:07:35.513Z,18.27
2019-02-19T15:10:58.889Z,18.80
2019-02-19T15:14:24.843Z,19.60
2019-02-19T15:17:48.261Z,20.20
2019-02-19T15:21:16.313Z,19.63
2019-02-19T15:24:48.673Z,21.57
2019-02-19T15:28:06.989Z,22.23
2019-02-19T15:31:28.912Z,20.73
2019-02-19T15:34:58.329Z,20.83
2019-02-19T15:38:13.557Z,20.63
2019-02-19T15:41:51.883Z,20.60
2019-02-19T15:45:09.223Z,20.40
2019-02-19T15:48:46.020Z,21.50
2019-02-19T15:52:09.315Z,21.20
2019-02-19T15:55:32.383Z,20.30
2019-02-19T15:58:53.167Z,21.00
2019-02-19T16:02:22.561Z,21.60
2019-02-19T16:05:58.669Z,23.10
2019-02-19T16:09:13.633Z,24.63
2019-02-19T16:12:36.368Z,24.73
2019-02-19T16:15:58.275Z,23.73
2019-02-19T16:19:13.743Z,25.20
2019-02-19T16:22:39.765Z,24.20
2019-02-19T16:26:15.296Z,25.57
2019-02-19T16:29:33.931Z,26.17
2019-02-19T16:32:44.629Z,27.93
2019-02-19T16:36:07.969Z,25.73
2019-02-19T16:39:31.599Z,26.77
2019-02-19T16:42:52.121Z,26.50
2019-02-19T16:46:18.320Z,27.17
2019-02-19T16:49:40.302Z,29.60
2019-02-19T16:53:06.411Z,29.17
2019-02-19T16:56:16.883Z,29.87
2019-02-19T16:59:52.614Z,30.87
2019-02-19T17:03:15.929Z,34.33
2019-02-19T17:06:38.065Z,36.67
2019-02-19T17:09:53.036Z,36.70
2019-02-19T17:13:23.391Z,38.03
2019-02-19T17:16:53.453Z,36.73
2019-02-19T17:20:04.847Z,38.33
2019-02-19T17:23:17.905Z,40.33
2019-02-19T17:26:41.933Z,40.87
2019-02-19T17:30:04.360Z,43.57
2019-02-19T17:33:26.102Z,45.17
2019-02-19T17:36:48.077Z,43.40
2019-02-19T17:40:17.273Z,44.57
2019-02-19T17:43:39.569Z,43.60
2019-02-19T17:46:57.309Z,42.63
2019-02-19T17:50:19.361Z,42.63
2019-02-19T17:53:52.220Z,41.37
2019-02-19T17:57:19.911Z,42.90
2019-02-19T18:00:42.259Z,42.30
2019-02-19T18:03:58.815Z,41.40
2019-02-19T18:07:22.061Z,41.27
2019-02-19T18:10:48.315Z,41.47
2019-02-19T18:14:11.624Z,41.67
2019-02-19T18:17:37.633Z,41.17
2019-02-19T18:20:47.453Z,43.53
2019-02-19T18:23:48.088Z,42.47
2019-02-19T18:26:52.514Z,44.07
2019-02-19T18:29:56.875Z,43.27
2019-02-19T18:33:01.340Z,42.53
2019-02-19T18:36:05.842Z,43.07
2019-02-19T18:39:10.271Z,42.60
2019-02-19T18:42:14.617Z,42.57
2019-02-19T18:45:19.087Z,44.23
2019-02-19T18:48:23.376Z,43.80
2019-02-19T18:51:27.881Z,43.33
2019-02-19T18:54:32.260Z,44.83
2019-02-19T18:57:36.705Z,46.63
2019-02-19T19:00:41.077Z,45.67
2019-02-19T19:03:47.605Z,45.57
2019-02-19T19:06:51.981Z,44.40
2019-02-19T19:09:56.427Z,46.23
2019-02-19T19:13:00.900Z,47.37
2019-02-19T19:16:05.903Z,46.40
2019-02-19T19:19:10.199Z,45.63
2019-02-19T19:22:14.616Z,47.53
2019-02-19T19:25:19.039Z,48.10
2019-02-19T19:28:23.716Z,48.73
2019-02-19T19:31:33.626Z,50.57
2019-02-19T19:34:34.207Z,53.37
2019-02-19T19:37:38.592Z,53.67
2019-02-19T19:40:43.022Z,53.50
2019-02-19T19:43:47.437Z,54.10
2019-02-19T19:46:51.921Z,51.53
2019-02-19T19:49:56.293Z,54.87
2019-02-19T19:53:00.688Z,54.90
2019-02-19T19:56:05.083Z,66.07
2019-02-19T19:59:09.530Z,60.07
2019-02-19T20:02:13.907Z,66.70
2019-02-19T20:05:18.718Z,70.70
2019-02-19T20:08:23.329Z,69.80
2019-02-19T20:11:28.094Z,70.37
2019-02-19T20:14:32.889Z,71.30
2019-02-19T20:17:39.985Z,69.80
2019-02-19T20:20:48.360Z,69.67
2019-02-19T20:24:02.607Z,71.20
2019-02-19T20:27:07.600Z,72.53
2019-02-19T20:30:12.638Z,72.20
2019-02-19T20:33:19.482Z,71.00
2019-02-19T20:36:24.404Z,93.50
2019-02-19T20:39:28.897Z,72.87
2019-02-19T20:42:33.257Z,75.03
2019-02-19T20:45:37.789Z,90.87
2019-02-19T20:48:42.270Z,74.77
2019-02-19T20:51:46.653Z,80.00
2019-02-19T20:54:51.108Z,83.57
2019-02-19T20:57:55.720Z,77.50
2019-02-19T21:01:00.126Z,82.53
2019-02-19T21:04:04.588Z,80.07
2019-02-19T21:07:09.072Z,77.93
2019-02-19T21:10:15.239Z,100.00
2019-02-19T21:13:19.716Z,93.73
2019-02-19T21:16:24.139Z,105.07
2019-02-19T21:19:28.561Z,132.80
2019-02-19T21:22:33.024Z,109.80
2019-02-19T21:25:37.448Z,107.17
2019-02-19T21:28:42.017Z,94.17
2019-02-19T21:31:46.473Z,86.30
2019-02-19T21:34:50.956Z,82.23
2019-02-19T21:37:55.591Z,80.70
2019-02-19T21:41:00.025Z,84.03
2019-02-19T21:44:04.433Z,89.83
2019-02-19T21:47:08.779Z,80.43
2019-02-19T21:50:15.415Z,77.93
2019-02-19T21:53:19.246Z,77.60
2019-02-19T21:56:23.950Z,78.23
2019-02-19T21:59:28.328Z,60.40
2019-02-19T22:02:32.706Z,46.30
2019-02-19T22:05:37.069Z,35.97
2019-02-19T22:08:41.385Z,29.63
2019-02-19T22:11:45.732Z,24.50
2019-02-19T22:14:50.102Z,25.23
2019-02-19T22:17:54.559Z,23.97
2019-02-19T22:21:04.126Z,25.20
2019-02-19T22:24:08.577Z,21.97
2019-02-19T22:27:12.980Z,23.30
2019-02-19T22:30:17.436Z,27.63
2019-02-19T22:33:21.965Z,26.00
2019-02-19T22:36:26.416Z,35.83
2019-02-19T22:39:30.722Z,25.07
2019-02-19T22:42:50.170Z,37.23
2019-02-19T22:45:54.536Z,26.70
2019-02-19T22:48:58.813Z,23.90
2019-02-19T22:52:11.932Z,27.90
2019-02-19T22:55:21.599Z,28.33
2019-02-19T22:58:25.914Z,27.77
2019-02-19T23:01:33.259Z,30.07
2019-02-19T23:04:37.669Z,29.20
2019-02-19T23:07:42.033Z,29.00
2019-02-19T23:10:46.550Z,32.03
2019-02-19T23:13:50.928Z,31.00
2019-02-19T23:16:55.249Z,34.87
2019-02-19T23:19:59.517Z,37.67
2019-02-19T23:23:03.893Z,39.47
2019-02-19T23:26:08.170Z,39.27
2019-02-19T23:29:12.505Z,39.10
2019-02-19T23:32:16.877Z,39.13
2019-02-19T23:35:32.002Z,39.07
2019-02-19T23:38:36.269Z,39.13
2019-02-19T23:41:40.647Z,38.50
2019-02-19T23:44:44.937Z,41.00
2019-02-19T23:47:49.154Z,36.43
2019-02-19T23:50:53.416Z,38.43
2019-02-19T23:53:57.717Z,35.77
2019-02-19T23:57:01.984Z,37.87
